Terminal Aerodrome Forecast
Issued by NWS

Home | Current Version | Previous Version | Text Only | Print | Product List | Glossary On
Versions: 1 2 3 4 5 6 7 8 9 10 11 12 13 14 15 16
000
FTUS45 KFGZ 291700
TAFSEZ
TAF
KSEZ 291730Z 2918/3018 VRB05KT P6SM BKN110 OVC150
     FM300100 07009KT P6SM OVC080
     FM300300 08009KT P6SM VCSH OVC060
     FM300600 08009KT 5SM -SHRA SCT025 OVC045
     FM300900 10009KT 3SM -RA BR BKN025 OVC035=

USA.gov is the U.S. government's official web portal to all federal, state and local government web resources and services.